TFM - Tactical Decision Aid
ID: Runway Winds: CIG/VIS Threshold:

KOGB - Orangeburg Muni, SC, US

Updated at: 0758 UTC 18 Sep 2021
Latest TAF at: 0533 UTC 18 Sep 2021

TAF Board

Time0753Z 18/08Z 18/09Z 18/10Z 18/11Z 18/12Z 18/13Z 18/14Z 18/15Z 18/16Z 18/17Z 18/18Z 18/19Z 18/20Z>>
Type OBS PRVL PRVL PRVL PRVL PRVL PRVL PRVL PRVL PRVL PRVL PRVL PRVL PRVL
VIS 6 3 3 3 3 3 >6 >6 >6 >6 >6 >6 >6 >6
CIG -- -- -- -- -- -- -- -- -- -- -- 50 50 50
Cover CLR SCT SCT SCT SCT SCT SCT SCT SCT SCT SCT BKN BKN BKN
FltCat VFR MVFR MVFR MVFR MVFR MVFR VFR VFR VFR VFR VFR VFR VFR VFR
WX BR BR BR BR BR BR -- -- -- -- -- -- -- --
WDir VRB VRB VRB VRB VRB VRB 40 40 40 40 40 70 70 70
WSpd 0 3 3 3 3 3 4 4 4 4 4 5 5 5
WGst -- -- -- -- -- -- -- -- -- -- -- -- -- --

TDA Impact Legend

  None Marginal Slight Moderate High
Visibility (sm) >5 3≤X≤5 2≤X<3 1≤X<2 <1
Ceiling (100 ft) >30 10≤X≤30 8≤X<10 3≤X<8 <3
Wind Speed (kt) <15 15≤X<25 25≤X<30 ≥30
Wind Gust (kt) <15 15≤X<25 25≤X<35 ≥35
Weather No Wx Reported VCTS -TS,-FZRA TS,FZRA +TS,+FZRA
TAF
KOGB 180533Z 1806/1906 VRB03KT P6SM BKN070
  FM180800 VRB03KT 3SM BR SCT070
  FM181300 04004KT P6SM SCT025
  FM181800 07005KT P6SM BKN050


METAR
KOGB 180753Z AUTO 00000KT 6SM BR CLR 22/22 A3010 RMK AO2 SLP189 T02220222 TSNO $
KOGB 180653Z AUTO 00000KT 5SM BR BKN043 22/22 A3010 RMK AO2 SLP191 T02220222 TSNO $
KOGB 180553Z AUTO 00000KT 7SM CLR 23/23 A3010 RMK AO2 SLP191 T02280228 10250 20222 58007 TSNO $
KOGB 180453Z AUTO 00000KT 8SM FEW041 OVC070 23/23 A3011 RMK AO2 SLP193 T02280228 403060211 TSNO $

Radar Display
Forecast Discussion